createdAt,value
2023-04-05T00:00:23.849Z,5.80
2023-04-05T00:01:23.854Z,5.40
2023-04-05T00:02:23.845Z,5.60
2023-04-05T00:03:23.939Z,5.90
2023-04-05T00:04:24.201Z,5.40
2023-04-05T00:05:23.806Z,5.60
2023-04-05T00:06:23.791Z,5.80
2023-04-05T00:07:23.799Z,5.30
2023-04-05T00:08:23.830Z,5.50
2023-04-05T00:09:23.751Z,5.10
2023-04-05T00:10:23.713Z,5.10
2023-04-05T00:11:23.737Z,5.40
2023-04-05T00:12:23.723Z,4.80
2023-04-05T00:13:23.700Z,5.00
2023-04-05T00:14:23.682Z,4.90
2023-04-05T00:15:23.687Z,4.80
2023-04-05T00:16:23.668Z,5.10
2023-04-05T00:17:23.700Z,5.20
2023-04-05T00:18:23.674Z,5.20
2023-04-05T00:19:23.657Z,5.40
2023-04-05T00:20:23.590Z,5.20
2023-04-05T00:21:23.618Z,5.40
2023-04-05T00:22:23.574Z,5.20
2023-04-05T00:23:23.583Z,5.40
2023-04-05T00:24:23.531Z,5.10
2023-04-05T00:25:23.553Z,5.60
2023-04-05T00:26:23.526Z,5.50
2023-04-05T00:27:23.546Z,5.10
2023-04-05T00:28:23.488Z,4.90
2023-04-05T00:29:23.502Z,5.20
2023-04-05T00:30:23.456Z,5.30
2023-04-05T00:31:23.504Z,5.20
2023-04-05T00:32:23.503Z,4.80
2023-04-05T00:33:23.463Z,5.30
2023-04-05T00:34:23.449Z,5.30
2023-04-05T00:35:23.408Z,5.30
2023-04-05T00:36:23.385Z,5.30
2023-04-05T00:37:23.406Z,5.50
2023-04-05T00:38:23.380Z,5.40
2023-04-05T00:39:23.372Z,5.30
2023-04-05T00:40:23.320Z,5.30
2023-04-05T00:41:23.335Z,5.00
2023-04-05T00:42:23.326Z,5.70
2023-04-05T00:43:23.306Z,5.40
2023-04-05T00:44:23.276Z,5.80
2023-04-05T00:45:23.309Z,5.10
2023-04-05T00:46:23.320Z,5.80
2023-04-05T00:47:23.316Z,5.60
2023-04-05T00:48:23.216Z,5.50
2023-04-05T00:49:23.236Z,5.80
2023-04-05T00:50:23.212Z,6.10
2023-04-05T00:51:23.225Z,5.90
2023-04-05T00:52:23.181Z,6.20
2023-04-05T00:53:23.186Z,6.00
2023-04-05T00:54:23.195Z,6.10
2023-04-05T00:55:23.152Z,5.80
2023-04-05T00:56:23.155Z,5.40
2023-04-05T00:57:23.172Z,5.40
2023-04-05T00:58:23.118Z,5.40
2023-04-05T00:59:23.131Z,5.40
2023-04-05T01:00:23.139Z,4.90
2023-04-05T01:01:23.165Z,4.90
2023-04-05T01:02:23.128Z,5.30
2023-04-05T01:03:23.071Z,5.50
2023-04-05T01:04:23.079Z,5.50
2023-04-05T01:05:23.031Z,5.30
2023-04-05T01:06:22.997Z,5.30
2023-04-05T01:07:23.013Z,5.60
2023-04-05T01:08:22.975Z,5.30
2023-04-05T01:09:23.041Z,5.40
2023-04-05T01:10:22.955Z,5.50
2023-04-05T01:11:22.954Z,5.20
2023-04-05T01:12:22.957Z,5.10
2023-04-05T01:13:22.929Z,5.40
2023-04-05T01:14:22.895Z,5.20
2023-04-05T01:15:22.898Z,5.50
2023-04-05T01:16:23.017Z,5.80
2023-04-05T01:17:22.911Z,5.80
2023-04-05T01:18:22.830Z,5.30
2023-04-05T01:19:22.845Z,6.10
2023-04-05T01:20:22.804Z,5.80
2023-04-05T01:21:22.847Z,5.60
2023-04-05T01:22:22.774Z,6.10
2023-04-05T01:23:22.788Z,6.50
2023-04-05T01:24:22.773Z,5.70
2023-04-05T01:25:22.780Z,6.00
2023-04-05T01:26:22.749Z,6.30
2023-04-05T01:27:22.789Z,5.70
2023-04-05T01:28:22.707Z,6.00
2023-04-05T01:29:22.744Z,5.70
2023-04-05T01:30:22.702Z,6.40
2023-04-05T01:31:22.798Z,6.00
2023-04-05T01:32:22.650Z,5.90
2023-04-05T01:33:22.674Z,6.40
2023-04-05T01:34:22.644Z,5.50
2023-04-05T01:35:23.449Z,6.00
2023-04-05T01:36:22.644Z,6.20
2023-04-05T01:37:22.607Z,6.20
2023-04-05T01:38:22.584Z,5.80
2023-04-05T01:39:22.592Z,6.10
2023-04-05T01:40:22.570Z,6.20
2023-04-05T01:41:22.577Z,5.30
2023-04-05T01:42:22.544Z,5.80
2023-04-05T01:43:22.539Z,5.80
2023-04-05T01:44:22.522Z,5.80
2023-04-05T01:45:22.520Z,6.60
2023-04-05T01:46:22.495Z,5.50
2023-04-05T01:47:22.541Z,5.50
2023-04-05T01:48:22.456Z,6.10
2023-04-05T01:49:22.470Z,5.70
2023-04-05T01:50:22.428Z,5.70
2023-04-05T01:51:22.429Z,5.90
2023-04-05T01:52:22.394Z,6.30
2023-04-05T01:53:22.447Z,5.60
2023-04-05T01:54:22.382Z,5.50
2023-04-05T01:55:22.371Z,5.70
2023-04-05T01:56:22.350Z,6.10
2023-04-05T01:57:22.478Z,5.30
2023-04-05T01:58:22.332Z,5.70
2023-04-05T01:59:22.390Z,6.00
2023-04-05T02:00:22.284Z,5.10
2023-04-05T02:01:22.405Z,5.50
2023-04-05T02:02:22.296Z,5.60
2023-04-05T02:03:22.413Z,5.30
2023-04-05T02:04:22.261Z,5.90
2023-04-05T02:05:22.252Z,5.40
2023-04-05T02:06:22.215Z,5.90
2023-04-05T02:07:22.226Z,6.00
2023-04-05T02:08:22.204Z,5.30
2023-04-05T02:09:22.222Z,5.60
2023-04-05T02:10:22.171Z,5.60
2023-04-05T02:11:22.194Z,5.60
2023-04-05T02:12:22.161Z,6.20
2023-04-05T02:13:22.191Z,5.90
2023-04-05T02:14:22.113Z,5.60
2023-04-05T02:15:22.139Z,5.90
2023-04-05T02:16:22.110Z,5.60
2023-04-05T02:17:22.112Z,6.00
2023-04-05T02:18:22.059Z,5.70
2023-04-05T02:19:22.073Z,5.80
2023-04-05T02:20:22.068Z,5.70
2023-04-05T02:21:22.048Z,5.70
2023-04-05T02:22:22.010Z,5.40
2023-04-05T02:23:22.038Z,5.70
2023-04-05T02:24:22.060Z,5.70
2023-04-05T02:25:22.028Z,5.80
2023-04-05T02:26:21.971Z,5.40
2023-04-05T02:27:21.982Z,5.70
2023-04-05T02:28:21.931Z,5.90
2023-04-05T02:29:21.951Z,5.80
2023-04-05T02:30:21.940Z,5.40
2023-04-05T02:31:21.961Z,5.90
2023-04-05T02:32:22.529Z,6.00
2023-04-05T02:33:21.887Z,6.30
2023-04-05T02:34:21.854Z,5.70
2023-04-05T02:35:21.891Z,6.00
2023-04-05T02:36:21.845Z,5.90
2023-04-05T02:37:21.835Z,6.00
2023-04-05T02:38:21.807Z,5.70
2023-04-05T02:39:21.835Z,5.50
2023-04-05T02:40:21.794Z,6.00
2023-04-05T02:41:21.820Z,5.60
2023-04-05T02:42:21.750Z,6.10
2023-04-05T02:43:21.755Z,5.80
2023-04-05T02:44:21.760Z,5.40
2023-04-05T02:45:21.729Z,5.70
2023-04-05T02:46:21.825Z,5.70
2023-04-05T02:47:21.823Z,6.10
2023-04-05T02:48:21.685Z,5.70
2023-04-05T02:49:21.670Z,5.80
2023-04-05T02:50:21.648Z,5.80
2023-04-05T02:51:21.658Z,5.70
2023-04-05T02:52:21.630Z,5.60
2023-04-05T02:53:21.624Z,6.20
2023-04-05T02:54:21.601Z,6.00
2023-04-05T02:55:21.622Z,5.60
2023-04-05T02:56:21.599Z,5.90
2023-04-05T02:57:21.600Z,6.00
2023-04-05T02:58:21.540Z,5.70
2023-04-05T02:59:21.605Z,6.10
2023-04-05T03:00:21.582Z,6.10
2023-04-05T03:01:21.550Z,6.30
2023-04-05T03:02:21.484Z,6.20
2023-04-05T03:03:21.563Z,6.40
2023-04-05T03:04:21.469Z,6.30
2023-04-05T03:05:21.515Z,6.10
2023-04-05T03:06:21.465Z,6.50
2023-04-05T03:07:21.464Z,6.50
2023-04-05T03:08:21.444Z,6.00
2023-04-05T03:09:21.449Z,6.30
2023-04-05T03:10:21.377Z,5.80
2023-04-05T03:11:21.407Z,6.10
2023-04-05T03:12:21.409Z,6.10
2023-04-05T03:13:21.371Z,5.60
2023-04-05T03:14:21.325Z,5.70
2023-04-05T03:15:21.356Z,5.80
2023-04-05T03:16:21.336Z,6.20
2023-04-05T03:17:21.365Z,5.90
2023-04-05T03:18:21.308Z,6.30
2023-04-05T03:19:21.295Z,6.10
2023-04-05T03:20:21.283Z,6.00
2023-04-05T03:21:21.301Z,6.20
2023-04-05T03:22:21.274Z,6.70
2023-04-05T03:23:21.249Z,6.40
2023-04-05T03:24:21.212Z,6.20
2023-04-05T03:25:21.226Z,6.20
2023-04-05T03:26:21.180Z,6.70
2023-04-05T03:27:21.198Z,7.10
2023-04-05T03:28:21.178Z,6.50
2023-04-05T03:29:21.179Z,7.10
2023-04-05T03:30:21.135Z,6.80
2023-04-05T03:31:21.210Z,7.20
2023-04-05T03:32:21.112Z,7.30
2023-04-05T03:33:21.118Z,7.80
2023-04-05T03:34:21.061Z,8.80
2023-04-05T03:35:21.134Z,8.50
2023-04-05T03:36:21.070Z,8.00
2023-04-05T03:37:21.063Z,7.60
2023-04-05T03:38:21.025Z,7.90
2023-04-05T03:39:21.093Z,6.90
2023-04-05T03:40:21.011Z,7.10
2023-04-05T03:41:21.011Z,6.50
2023-04-05T03:42:20.999Z,6.50
2023-04-05T03:43:20.985Z,7.10
2023-04-05T03:44:20.956Z,6.70
2023-04-05T03:45:23.961Z,6.30
2023-04-05T03:46:21.033Z,7.30
2023-04-05T03:47:20.941Z,8.00
2023-04-05T03:48:20.982Z,8.10
2023-04-05T03:49:20.902Z,9.20
2023-04-05T03:50:20.861Z,7.50
2023-04-05T03:51:20.884Z,7.50
2023-04-05T03:52:20.877Z,7.30
2023-04-05T03:53:20.854Z,6.60
2023-04-05T03:54:20.812Z,7.20
2023-04-05T03:55:20.829Z,6.80
2023-04-05T03:56:20.826Z,7.30
2023-04-05T03:57:21.465Z,7.10
2023-04-05T03:58:20.778Z,7.30
2023-04-05T03:59:20.801Z,7.10
2023-04-05T04:00:20.762Z,6.90
2023-04-05T04:01:20.776Z,6.90
2023-04-05T04:02:20.754Z,7.10
2023-04-05T04:03:20.734Z,7.00
2023-04-05T04:04:20.709Z,7.30
2023-04-05T04:05:20.912Z,7.00
2023-04-05T04:06:20.705Z,7.60
2023-04-05T04:07:20.660Z,6.80
2023-04-05T04:08:20.662Z,7.30
2023-04-05T04:09:20.654Z,7.20
2023-04-05T04:10:20.619Z,6.80
2023-04-05T04:11:20.611Z,6.60
2023-04-05T04:12:20.586Z,6.80
2023-04-05T04:13:20.611Z,7.20
2023-04-05T04:14:20.563Z,7.40
2023-04-05T04:15:20.591Z,6.80
2023-04-05T04:16:20.539Z,7.90
2023-04-05T04:17:20.550Z,6.70
2023-04-05T04:18:20.511Z,7.30
2023-04-05T04:19:21.063Z,7.20
2023-04-05T04:20:20.494Z,6.60
2023-04-05T04:21:20.484Z,6.60
2023-04-05T04:22:20.446Z,7.50
2023-04-05T04:23:20.477Z,6.80
2023-04-05T04:24:20.436Z,6.40
2023-04-05T04:25:20.512Z,7.00
2023-04-05T04:26:20.413Z,7.10
2023-04-05T04:27:20.416Z,6.90
2023-04-05T04:28:20.398Z,6.80
2023-04-05T04:29:20.391Z,6.70
2023-04-05T04:30:20.379Z,6.70
2023-04-05T04:31:20.374Z,6.70
2023-04-05T04:32:20.317Z,7.00
2023-04-05T04:33:20.342Z,7.30
2023-04-05T04:34:20.326Z,6.70
2023-04-05T04:35:20.346Z,7.00
2023-04-05T04:36:20.289Z,6.30
2023-04-05T04:37:20.290Z,7.10
2023-04-05T04:38:20.257Z,6.90
2023-04-05T04:39:20.272Z,7.30
2023-04-05T04:40:20.238Z,7.30
2023-04-05T04:41:20.245Z,6.50
2023-04-05T04:42:20.237Z,7.00
2023-04-05T04:43:20.210Z,6.40
2023-04-05T04:44:20.164Z,6.90
2023-04-05T04:45:20.193Z,6.70
2023-04-05T04:46:20.161Z,7.00
2023-04-05T04:47:20.188Z,7.20
2023-04-05T04:48:20.131Z,6.60
2023-04-05T04:49:20.138Z,7.00
2023-04-05T04:50:20.096Z,7.10
2023-04-05T04:51:20.094Z,7.00
2023-04-05T04:52:20.082Z,7.30
2023-04-05T04:53:21.582Z,7.80
2023-04-05T04:54:20.093Z,7.20
2023-04-05T04:55:20.069Z,7.70
2023-04-05T04:56:20.028Z,7.50
2023-04-05T04:57:20.041Z,7.20
2023-04-05T04:58:20.032Z,7.80
2023-04-05T04:59:20.039Z,7.50
2023-04-05T05:00:19.954Z,7.60
2023-04-05T05:01:20.051Z,7.40
2023-04-05T05:02:19.946Z,7.80
2023-04-05T05:03:20.000Z,7.20
2023-04-05T05:04:19.953Z,7.60
2023-04-05T05:05:19.926Z,7.50
2023-04-05T05:06:19.885Z,7.60
2023-04-05T05:07:19.923Z,7.40
2023-04-05T05:08:21.484Z,7.30
2023-04-05T05:09:19.913Z,6.60
2023-04-05T05:10:19.848Z,7.10
2023-04-05T05:11:19.825Z,7.20
2023-04-05T05:12:19.838Z,7.00
2023-04-05T05:13:19.813Z,7.30
2023-04-05T05:14:19.826Z,7.60
2023-04-05T05:15:19.794Z,7.30
2023-04-05T05:16:19.818Z,7.30
2023-04-05T05:17:19.755Z,8.20
2023-04-05T05:18:19.772Z,8.10
2023-04-05T05:19:19.762Z,7.90
2023-04-05T05:20:19.731Z,7.80
2023-04-05T05:21:19.716Z,7.20
2023-04-05T05:22:19.710Z,7.70
2023-04-05T05:23:19.688Z,7.50
2023-04-05T05:24:19.693Z,7.10
2023-04-05T05:25:19.642Z,7.90
2023-04-05T05:26:19.684Z,7.20
2023-04-05T05:27:19.629Z,7.10
2023-04-05T05:28:19.651Z,7.30
2023-04-05T05:29:19.616Z,6.90
2023-04-05T05:30:19.606Z,6.40
2023-04-05T05:31:19.649Z,7.00
2023-04-05T05:32:19.614Z,7.00
2023-04-05T05:33:19.548Z,7.70
2023-04-05T05:34:19.548Z,7.40
2023-04-05T05:35:19.571Z,7.30
2023-04-05T05:36:19.534Z,7.30
2023-04-05T05:37:19.519Z,7.00
2023-04-05T05:38:19.531Z,6.60
2023-04-05T05:39:19.486Z,6.70
2023-04-05T05:40:19.491Z,7.30
2023-04-05T05:41:19.447Z,6.70
2023-04-05T05:42:19.463Z,6.60
2023-04-05T05:43:19.450Z,7.30
2023-04-05T05:44:19.446Z,7.10
2023-04-05T05:45:19.389Z,7.20
2023-04-05T05:46:21.159Z,6.70
2023-04-05T05:47:19.389Z,6.50
2023-04-05T05:48:19.405Z,6.80
2023-04-05T05:49:19.338Z,6.40
2023-04-05T05:50:19.360Z,7.00
2023-04-05T05:51:19.317Z,6.90
2023-04-05T05:52:19.326Z,6.50
2023-04-05T05:53:19.309Z,6.80
2023-04-05T05:54:19.300Z,6.80
2023-04-05T05:55:19.267Z,6.40
2023-04-05T05:56:19.312Z,7.20
2023-04-05T05:57:19.226Z,6.60
2023-04-05T05:58:19.275Z,7.30
2023-04-05T05:59:19.252Z,7.10
2023-04-05T06:00:19.233Z,6.90
2023-04-05T06:01:19.205Z,6.90
2023-04-05T06:02:19.214Z,6.70
2023-04-05T06:03:19.439Z,7.20
2023-04-05T06:04:19.313Z,6.60
2023-04-05T06:05:19.166Z,6.70
2023-04-05T06:06:19.165Z,6.50
2023-04-05T06:07:19.130Z,6.70
2023-04-05T06:08:19.129Z,6.50
2023-04-05T06:09:19.121Z,6.50
2023-04-05T06:10:19.084Z,7.00
2023-04-05T06:11:19.062Z,6.80
2023-04-05T06:12:19.076Z,6.60
2023-04-05T06:13:19.033Z,6.70
2023-04-05T06:14:19.076Z,6.50
2023-04-05T06:15:19.019Z,6.70
2023-04-05T06:16:19.160Z,6.20
2023-04-05T06:17:18.985Z,7.00
2023-04-05T06:18:19.012Z,6.30
2023-04-05T06:19:19.022Z,7.20
2023-04-05T06:20:18.988Z,7.10
2023-04-05T06:21:18.941Z,6.90
2023-04-05T06:22:18.962Z,7.50
2023-04-05T06:23:18.888Z,6.40
2023-04-05T06:24:18.918Z,7.00
2023-04-05T06:25:18.891Z,7.40
2023-04-05T06:26:18.918Z,7.00
2023-04-05T06:27:18.866Z,7.80
2023-04-05T06:28:18.878Z,7.00
2023-04-05T06:29:18.819Z,6.90
2023-04-05T06:30:18.851Z,7.00
2023-04-05T06:31:18.841Z,7.00
2023-04-05T06:32:18.810Z,6.90
2023-04-05T06:33:19.011Z,6.60
2023-04-05T06:34:18.783Z,7.30
2023-04-05T06:35:18.730Z,6.10
2023-04-05T06:36:18.766Z,6.30
2023-04-05T06:37:18.709Z,6.10
2023-04-05T06:38:18.718Z,6.00
2023-04-05T06:39:18.689Z,6.40
2023-04-05T06:40:18.714Z,6.00
2023-04-05T06:41:18.659Z,6.20
2023-04-05T06:42:18.705Z,6.30
2023-04-05T06:43:18.627Z,5.80
2023-04-05T06:44:18.643Z,6.30
2023-04-05T06:45:18.610Z,6.50
2023-04-05T06:46:18.745Z,6.50
2023-04-05T06:47:18.609Z,6.50
2023-04-05T06:48:18.617Z,6.20
2023-04-05T06:49:18.565Z,6.40
2023-04-05T06:50:18.580Z,6.00
2023-04-05T06:51:18.537Z,6.20
2023-04-05T06:52:18.604Z,6.40
2023-04-05T06:53:18.534Z,6.00
2023-04-05T06:54:18.516Z,6.10
2023-04-05T06:55:18.486Z,5.90
2023-04-05T06:56:18.595Z,6.80
2023-04-05T06:57:18.461Z,5.80
2023-04-05T06:58:18.527Z,6.40
2023-04-05T06:59:18.476Z,6.00
2023-04-05T07:00:18.456Z,5.60
2023-04-05T07:01:18.438Z,5.80
2023-04-05T07:02:18.427Z,5.90
2023-04-05T07:03:18.405Z,6.70
2023-04-05T07:04:18.402Z,6.20
2023-04-05T07:05:18.347Z,5.90
2023-04-05T07:06:18.383Z,6.30
2023-04-05T07:07:18.333Z,6.20
2023-04-05T07:08:18.359Z,6.00
2023-04-05T07:09:18.316Z,6.10
2023-04-05T07:10:18.314Z,6.50
2023-04-05T07:11:18.291Z,6.20
2023-04-05T07:12:18.290Z,6.60
2023-04-05T07:13:18.246Z,5.80
2023-04-05T07:14:18.284Z,6.60
2023-04-05T07:15:18.233Z,5.70
2023-04-05T07:16:18.314Z,6.00
2023-04-05T07:17:18.209Z,6.50
2023-04-05T07:18:18.223Z,6.30
2023-04-05T07:19:18.182Z,5.90
2023-04-05T07:20:18.196Z,5.70
2023-04-05T07:21:18.128Z,5.90
2023-04-05T07:22:18.158Z,6.10
2023-04-05T07:23:18.354Z,6.50
2023-04-05T07:24:18.187Z,6.10
2023-04-05T07:25:18.118Z,5.90
2023-04-05T07:26:18.113Z,5.80
2023-04-05T07:27:18.077Z,5.70
2023-04-05T07:28:18.086Z,5.90
2023-04-05T07:29:18.041Z,5.80
2023-04-05T07:30:18.098Z,5.90
2023-04-05T07:31:18.013Z,5.60
2023-04-05T07:32:18.067Z,6.10
2023-04-05T07:33:18.049Z,6.10
2023-04-05T07:34:18.019Z,6.40
2023-04-05T07:35:18.001Z,6.20
2023-04-05T07:36:18.008Z,5.40
2023-04-05T07:37:17.964Z,5.70
2023-04-05T07:38:17.983Z,5.60
2023-04-05T07:39:17.914Z,5.80
2023-04-05T07:40:17.962Z,5.50
2023-04-05T07:41:17.883Z,5.40
2023-04-05T07:42:17.925Z,5.60
2023-04-05T07:43:17.882Z,5.30
2023-04-05T07:44:17.884Z,5.80
2023-04-05T07:45:17.866Z,5.10
2023-04-05T07:46:17.858Z,5.70
2023-04-05T07:47:17.826Z,5.50
2023-04-05T07:48:17.823Z,5.70
2023-04-05T07:49:17.825Z,5.80
2023-04-05T07:50:17.797Z,5.40
2023-04-05T07:51:17.828Z,5.70
2023-04-05T07:52:17.768Z,5.00
2023-04-05T07:53:17.794Z,5.70
2023-04-05T07:54:17.737Z,5.30
2023-04-05T07:55:17.721Z,5.50
2023-04-05T07:56:17.740Z,5.80
2023-04-05T07:57:17.690Z,6.20
2023-04-05T07:58:17.715Z,5.60
2023-04-05T07:59:17.715Z,5.10
2023-04-05T08:00:17.707Z,5.20
2023-04-05T08:01:17.637Z,5.20
2023-04-05T08:02:17.652Z,5.00
2023-04-05T08:03:17.667Z,5.30
2023-04-05T08:04:17.712Z,5.50
2023-04-05T08:05:17.705Z,5.70
2023-04-05T08:06:17.613Z,5.90
2023-04-05T08:07:17.558Z,5.50
2023-04-05T08:08:17.672Z,6.00
2023-04-05T08:09:17.511Z,5.50
2023-04-05T08:10:17.532Z,5.70
2023-04-05T08:11:17.516Z,5.70
2023-04-05T08:12:17.539Z,5.10
2023-04-05T08:13:17.465Z,5.50
2023-04-05T08:14:17.480Z,5.90
2023-04-05T08:15:17.451Z,5.40
2023-04-05T08:16:17.603Z,5.30
2023-04-05T08:17:17.431Z,5.20
2023-04-05T08:18:17.476Z,5.10
2023-04-05T08:19:17.393Z,5.40
2023-04-05T08:20:17.432Z,4.70
2023-04-05T08:21:17.367Z,5.20
2023-04-05T08:22:17.398Z,5.70
2023-04-05T08:23:17.341Z,4.90
2023-04-05T08:24:17.364Z,5.10
2023-04-05T08:25:17.324Z,5.50
2023-04-05T08:26:17.372Z,5.00
2023-04-05T08:27:17.279Z,4.90
2023-04-05T08:28:17.315Z,5.10
2023-04-05T08:29:17.264Z,5.10
2023-04-05T08:30:17.289Z,4.70
2023-04-05T08:31:17.259Z,5.00
2023-04-05T08:32:17.293Z,5.20
2023-04-05T08:33:17.242Z,5.00
2023-04-05T08:34:17.232Z,4.30
2023-04-05T08:35:17.298Z,4.10
2023-04-05T08:36:17.241Z,4.40
2023-04-05T08:37:17.165Z,4.90
2023-04-05T08:38:17.178Z,5.00
2023-04-05T08:39:17.161Z,4.90
2023-04-05T08:40:17.137Z,4.80
2023-04-05T08:41:17.092Z,5.20
2023-04-05T08:42:17.139Z,4.60
2023-04-05T08:43:19.132Z,4.20
2023-04-05T08:44:17.085Z,4.40
2023-04-05T08:45:17.371Z,4.20
2023-04-05T08:46:17.108Z,4.70
2023-04-05T08:47:17.026Z,4.30
2023-04-05T08:48:17.124Z,4.80
2023-04-05T08:49:16.999Z,4.20
2023-04-05T08:50:17.033Z,4.70
2023-04-05T08:51:17.166Z,5.00
2023-04-05T08:52:17.000Z,4.60
2023-04-05T08:53:16.936Z,4.50
2023-04-05T08:54:16.951Z,4.40
2023-04-05T08:55:16.959Z,4.20
2023-04-05T08:56:16.983Z,4.00
2023-04-05T08:57:16.904Z,4.30
2023-04-05T08:58:16.893Z,4.30
2023-04-05T08:59:16.947Z,5.10
2023-04-05T09:00:16.871Z,5.00
2023-04-05T09:01:16.923Z,5.20
2023-04-05T09:02:16.912Z,5.30
2023-04-05T09:03:16.873Z,4.90
2023-04-05T09:04:16.873Z,4.50
2023-04-05T09:05:16.802Z,4.50
2023-04-05T09:06:16.837Z,3.90
2023-04-05T09:07:16.778Z,4.50
2023-04-05T09:08:16.781Z,4.10
2023-04-05T09:09:16.744Z,3.90
2023-04-05T09:10:16.744Z,4.20
2023-04-05T09:11:16.759Z,4.00
2023-04-05T09:12:16.712Z,4.30
2023-04-05T09:13:16.712Z,4.40
2023-04-05T09:14:16.730Z,4.10
2023-04-05T09:15:16.661Z,4.40
2023-04-05T09:16:16.721Z,4.00
2023-04-05T09:17:16.722Z,4.40
2023-04-05T09:18:26.017Z,4.20
2023-04-05T09:19:16.640Z,4.30
2023-04-05T09:20:16.614Z,4.70
2023-04-05T09:21:16.560Z,3.80
2023-04-05T09:22:16.592Z,4.20
2023-04-05T09:23:16.565Z,4.40
2023-04-05T09:24:16.555Z,4.10
2023-04-05T09:25:16.522Z,4.10
2023-04-05T09:26:16.547Z,4.20
2023-04-05T09:27:16.565Z,4.20
2023-04-05T09:28:16.486Z,4.10
2023-04-05T09:29:16.495Z,4.10
2023-04-05T09:30:16.462Z,4.10
2023-04-05T09:31:16.519Z,4.10
2023-04-05T09:32:16.451Z,4.30
2023-04-05T09:33:16.464Z,4.50
2023-04-05T09:34:16.391Z,4.40
2023-04-05T09:35:16.424Z,4.40
2023-04-05T09:36:16.439Z,4.00
2023-04-05T09:37:16.387Z,4.10
2023-04-05T09:38:16.386Z,4.10
2023-04-05T09:39:16.363Z,3.90
2023-04-05T09:40:16.329Z,4.40
2023-04-05T09:41:16.393Z,4.10
2023-04-05T09:42:16.285Z,4.40
2023-04-05T09:43:16.333Z,4.70
2023-04-05T09:44:16.307Z,4.00
2023-04-05T09:45:16.353Z,3.90
2023-04-05T09:46:16.308Z,4.50
2023-04-05T09:47:16.269Z,4.20
2023-04-05T09:48:16.265Z,4.20
2023-04-05T09:49:16.253Z,4.40
2023-04-05T09:50:16.202Z,4.40
2023-04-05T09:51:16.215Z,4.00
2023-04-05T09:52:16.155Z,4.20
2023-04-05T09:53:16.522Z,3.90
2023-04-05T09:54:16.173Z,3.90
2023-04-05T09:55:16.149Z,4.10
2023-04-05T09:56:16.104Z,4.20
2023-04-05T09:57:16.126Z,4.60
2023-04-05T09:58:16.108Z,4.10
2023-04-05T09:59:16.149Z,4.50
2023-04-05T10:00:16.067Z,3.90
2023-04-05T10:01:17.093Z,4.20
2023-04-05T10:02:16.203Z,4.20
2023-04-05T10:03:16.136Z,4.00
2023-04-05T10:04:16.053Z,4.00
2023-04-05T10:05:16.051Z,4.00
2023-04-05T10:06:15.982Z,4.20
2023-04-05T10:07:16.046Z,4.30
2023-04-05T10:08:15.949Z,4.20
2023-04-05T10:09:15.979Z,4.10
2023-04-05T10:10:15.945Z,4.00
2023-04-05T10:11:15.942Z,4.50
2023-04-05T10:12:15.922Z,4.40
2023-04-05T10:13:15.897Z,4.10
2023-04-05T10:14:15.870Z,4.40
2023-04-05T10:15:15.877Z,4.10
2023-04-05T10:16:15.924Z,4.30
2023-04-05T10:17:15.826Z,4.10
2023-04-05T10:18:15.888Z,4.00
2023-04-05T10:19:15.815Z,3.90
2023-04-05T10:20:15.815Z,4.20
2023-04-05T10:21:15.830Z,4.20
2023-04-05T10:22:15.794Z,4.00
2023-04-05T10:23:15.793Z,3.80
2023-04-05T10:24:15.787Z,4.10
2023-04-05T10:25:15.769Z,4.50
2023-04-05T10:26:15.720Z,4.50
2023-04-05T10:27:15.717Z,4.10
2023-04-05T10:28:15.681Z,4.50
2023-04-05T10:29:15.697Z,4.50
2023-04-05T10:30:15.683Z,4.30
2023-04-05T10:31:23.978Z,4.30
2023-04-05T10:32:15.661Z,4.40
2023-04-05T10:33:15.655Z,4.70
2023-04-05T10:34:15.628Z,4.60
2023-04-05T10:35:15.659Z,4.80
2023-04-05T10:36:15.635Z,4.70
2023-04-05T10:37:15.596Z,4.30
2023-04-05T10:38:15.575Z,4.70
2023-04-05T10:39:15.554Z,4.60
2023-04-05T10:40:15.523Z,4.50
2023-04-05T10:41:15.604Z,4.90
2023-04-05T10:42:15.590Z,4.40
2023-04-05T10:43:15.534Z,4.50
2023-04-05T10:44:25.710Z,4.60
2023-04-05T10:45:15.845Z,4.30
2023-04-05T10:46:15.475Z,4.40
2023-04-05T10:47:15.468Z,4.60
2023-04-05T10:48:15.453Z,4.50
2023-04-05T10:49:15.471Z,4.40
2023-04-05T10:50:15.413Z,4.80
2023-04-05T10:51:15.434Z,4.50
2023-04-05T10:52:15.424Z,4.40
2023-04-05T10:53:15.478Z,5.10
2023-04-05T10:54:15.390Z,4.60
2023-04-05T10:55:15.332Z,4.40
2023-04-05T10:56:15.318Z,4.40
2023-04-05T10:57:15.374Z,4.30
2023-04-05T10:58:15.310Z,4.20
2023-04-05T10:59:15.398Z,4.80
2023-04-05T11:00:15.298Z,4.60
2023-04-05T11:01:15.329Z,4.50
2023-04-05T11:02:15.220Z,4.40
2023-04-05T11:03:15.311Z,4.50
2023-04-05T11:04:15.299Z,4.40
2023-04-05T11:05:15.237Z,4.50
2023-04-05T11:06:15.172Z,4.30
2023-04-05T11:07:15.187Z,4.20
2023-04-05T11:08:15.156Z,4.40
2023-04-05T11:09:15.150Z,4.80
2023-04-05T11:10:15.141Z,4.40
2023-04-05T11:11:15.144Z,5.00
2023-04-05T11:12:15.086Z,5.20
2023-04-05T11:13:15.117Z,4.50
2023-04-05T11:14:15.104Z,4.70
2023-04-05T11:15:15.115Z,4.40
2023-04-05T11:16:15.064Z,4.30
2023-04-05T11:17:15.072Z,4.30
2023-04-05T11:18:15.009Z,4.50
2023-04-05T11:19:15.048Z,4.40
2023-04-05T11:20:14.985Z,4.40
2023-04-05T11:21:15.023Z,4.40
2023-04-05T11:22:14.974Z,4.50
2023-04-05T11:23:15.009Z,4.20
2023-04-05T11:24:14.937Z,4.70
2023-04-05T11:25:14.965Z,4.90
2023-04-05T11:26:14.918Z,4.60
2023-04-05T11:27:14.944Z,4.80
2023-04-05T11:28:14.918Z,4.20
2023-04-05T11:29:14.896Z,4.10
2023-04-05T11:30:14.850Z,4.30
2023-04-05T11:31:14.971Z,4.30
2023-04-05T11:32:14.861Z,4.00
2023-04-05T11:33:14.828Z,4.10
2023-04-05T11:34:14.874Z,4.20
2023-04-05T11:35:14.894Z,5.30
2023-04-05T11:36:14.853Z,4.70
2023-04-05T11:37:14.791Z,4.70
2023-04-05T11:38:14.759Z,4.30
2023-04-05T11:39:14.777Z,4.30
2023-04-05T11:40:14.931Z,4.40
2023-04-05T11:41:14.743Z,4.70
2023-04-05T11:42:14.691Z,4.60
2023-04-05T11:43:14.705Z,4.70
2023-04-05T11:44:14.665Z,4.80
2023-04-05T11:45:14.675Z,5.40
2023-04-05T11:46:14.729Z,5.90
2023-04-05T11:47:14.668Z,4.50
2023-04-05T11:48:14.702Z,4.50
2023-04-05T11:49:14.663Z,4.40
2023-04-05T11:50:14.600Z,4.40
2023-04-05T11:51:14.662Z,4.80
2023-04-05T11:52:14.586Z,4.40
2023-04-05T11:53:14.580Z,5.00
2023-04-05T11:54:14.568Z,5.00
2023-04-05T11:55:14.550Z,4.10
2023-04-05T11:56:14.511Z,4.80
2023-04-05T11:57:14.519Z,4.30
2023-04-05T11:58:14.533Z,4.50
2023-04-05T11:59:14.566Z,4.70
2023-04-05T12:00:14.481Z,4.50
2023-04-05T12:01:14.470Z,4.40
2023-04-05T12:02:14.455Z,4.90
2023-04-05T12:03:14.566Z,4.60
2023-04-05T12:04:14.409Z,4.80
2023-04-05T12:05:14.468Z,4.40
2023-04-05T12:06:14.391Z,5.10
2023-04-05T12:07:14.395Z,4.60
2023-04-05T12:08:14.440Z,5.00
2023-04-05T12:09:14.380Z,4.60
2023-04-05T12:10:14.326Z,4.70
2023-04-05T12:11:14.423Z,4.10
2023-04-05T12:12:14.298Z,4.50
2023-04-05T12:13:14.363Z,4.30
2023-04-05T12:14:14.310Z,4.40
2023-04-05T12:15:14.594Z,4.40
2023-04-05T12:16:14.289Z,4.10
2023-04-05T12:17:14.273Z,4.30
2023-04-05T12:18:14.222Z,4.60
2023-04-05T12:19:14.235Z,4.50
2023-04-05T12:20:14.240Z,4.60
2023-04-05T12:21:14.200Z,4.10
2023-04-05T12:22:14.171Z,4.00
2023-04-05T12:23:14.183Z,4.50
2023-04-05T12:24:14.183Z,4.50
2023-04-05T12:25:14.148Z,4.20
2023-04-05T12:26:14.129Z,4.50
2023-04-05T12:27:14.121Z,4.20
2023-04-05T12:28:14.081Z,4.50
2023-04-05T12:29:14.103Z,4.90
2023-04-05T12:30:14.138Z,4.60
2023-04-05T12:31:14.071Z,4.40
2023-04-05T12:32:14.077Z,4.00
2023-04-05T12:33:14.051Z,4.20
2023-04-05T12:34:14.099Z,4.40
2023-04-05T12:35:14.028Z,4.70
2023-04-05T12:36:14.043Z,4.40
2023-04-05T12:37:14.000Z,4.50
2023-04-05T12:38:13.957Z,4.00
2023-04-05T12:39:13.987Z,4.20
2023-04-05T12:40:13.967Z,4.00
2023-04-05T12:41:13.999Z,4.30
2023-04-05T12:42:13.906Z,3.90
2023-04-05T12:43:13.939Z,4.50
2023-04-05T12:44:13.867Z,3.80
2023-04-05T12:45:13.946Z,3.60
2023-04-05T12:46:13.854Z,3.70
2023-04-05T12:47:13.850Z,3.50
2023-04-05T12:48:13.867Z,4.00
2023-04-05T12:49:13.834Z,3.70
2023-04-05T12:50:13.803Z,3.80
2023-04-05T12:51:13.874Z,4.00
2023-04-05T12:52:13.771Z,3.90
2023-04-05T12:53:13.781Z,3.90
2023-04-05T12:54:13.766Z,4.00
2023-04-05T12:55:13.762Z,3.70
2023-04-05T12:56:13.729Z,4.20
2023-04-05T12:57:13.752Z,4.40
2023-04-05T12:58:13.687Z,4.30
2023-04-05T12:59:13.814Z,3.50
2023-04-05T13:00:13.734Z,3.80
2023-04-05T13:01:13.785Z,3.70
2023-04-05T13:02:13.674Z,3.60
2023-04-05T13:03:13.718Z,3.80
2023-04-05T13:04:16.605Z,4.00
2023-04-05T13:05:13.614Z,3.90
2023-04-05T13:06:13.646Z,3.50
2023-04-05T13:07:13.606Z,3.60
2023-04-05T13:08:13.614Z,3.60
2023-04-05T13:09:13.558Z,3.60
2023-04-05T13:10:13.558Z,3.90
2023-04-05T13:11:13.537Z,3.80
2023-04-05T13:12:13.527Z,3.70
2023-04-05T13:13:13.549Z,4.10
2023-04-05T13:14:13.540Z,3.60
2023-04-05T13:15:13.466Z,3.40
2023-04-05T13:16:13.526Z,3.90
2023-04-05T13:17:13.447Z,3.90
2023-04-05T13:18:13.474Z,3.50